• Join FlightAware (Why Join?)
  • Login
  • US Flag 
11:09PM EDT


 

Airport Tracker/Info


-or-


 

Live Flight TrackerFlight Track Log ✈ AWE3988 ✈ 01-May-2013 ✈ KMHT - KPHL

Flight Track Log - Related Links

Times and Time Zones

All times are in EDT time to prevent confusion due to time zone crossing. See the AWE3988 flight status page for this flight to view local times or setup timezone preferences in your user account.

Time Position Orientation Groundspeed Altitude Reporting Facility
EDT Latitude Longitude Course Direction KTS MPH feet Rate Location/Type
04:30PM 42.9167 -71.4167 270° West 154 177 1,300  Level KA90
04:31PM 42.8819 -71.4767 232° Southwest 157 181 2,900 1,860 Climbing Boston Center
04:32PM 42.9404 -71.8137 279° West  Level FlightAware Approximate
04:32PM 42.9283 -71.5411 315° West 157 181 5,100  Level Boston Center
04:33PM 42.9500 -71.9408 270° West  Level FlightAware Approximate
04:33PM 42.9831 -71.6228 313° West 253 291 7,800  Level Boston Center
04:34PM 42.9501 -72.0688 270° West  Level FlightAware Approximate
04:34PM 43.0314 -71.6958 312° West 275 316 10,000  Level Boston Center
04:35PM 42.9500 -72.1969 270° West  Level FlightAware Approximate
04:35PM 43.0944 -71.7806 316° Northwest 286 329 12,200  Level Boston Center
04:36PM 43.1097 -71.8828 282° West 296 341 14,400 2,100 Climbing Boston Center
04:37PM 43.1000 -72.0192 264° West 312 359 16,400 1,680 Climbing Boston Center
04:38PM 43.0919 -72.1386 265° West 348 400 17,800 1,260 Climbing Boston Center
04:39PM 43.0858 -72.2981 267° West 360 414 19,300 1,260 Climbing Boston Center
04:40PM 43.0778 -72.4344 265° West 360 414 20,600 1,200 Climbing Boston Center
04:41PM 43.0694 -72.5736 265° West 370 426 21,700 1,140 Climbing Boston Center
04:42PM 43.0461 -72.7186 258° West 378 435 22,900 1,140 Climbing Boston Center
04:43PM 43.0331 -72.8689 263° West 390 449 24,000 1,080 Climbing Boston Center
04:44PM 43.0219 -73.0336 265° West 395 455 25,100 900 Climbing Boston Center
04:45PM 43.0106 -73.1869 264° West 400 460 25,900 420 Climbing Boston Center
04:46PM 42.9928 -73.3428 261° West 411 473 26,000  Climbing Boston Center
04:47PM 42.9231 -73.4722 234° Southwest 405 466 26,000  Level Boston Center
04:48PM 42.8633 -73.6014 238° Southwest 410 472 26,000 -960 Level Boston Center
04:49PM 42.7933 -73.7275 233° Southwest 416 479 24,100 -1,020 Descending Boston Center
04:50PM 42.7253 -73.8475 232° Southwest 416 479 24,000 -60 Descending Boston Center
04:51PM 42.6653 -73.9733 237° Southwest 410 472 24,000  Level Boston Center
04:52PM 42.6117 -74.0819 236° Southwest 398 458 24,000  Level Boston Center
04:53PM 42.5642 -74.1850 238° Southwest 398 458 24,000  Level Boston Center
04:54PM 42.4908 -74.3322 236° Southwest 398 458 24,000  Level Boston Center
04:55PM 42.4306 -74.4514 236° Southwest 403 464 24,000  Level Boston Center
04:56PM 42.3808 -74.5539 237° Southwest 403 464 24,000 -300 Level Boston Center
04:57PM 42.3092 -74.6972 236° Southwest 398 458 23,400 -960 Descending Boston Center
04:58PM 42.2525 -74.8131 237° Southwest 393 452 22,100 -1,140 Descending Boston Center
04:59PM 42.1983 -74.9203 236° Southwest 379 436 20,900 -900 Descending Boston Center
05:01PM 41.9917 -75.1128 215° Southwest 358 412 19,000 -600 Descending New York Center
05:02PM 41.9103 -75.1800 212° Southwest 363 418 19,000 -120 Level New York Center
05:03PM 41.8331 -75.2417 211° Southwest 363 418 18,800 -780 Descending New York Center
05:04PM 41.7514 -75.3056 210° Southwest 358 412 17,500 -1,620 Descending New York Center
05:05PM 41.6653 -75.3775 212° Southwest 351 404 15,600 -1,800 Descending New York Center
05:06PM 41.5858 -75.4414 211° Southwest 338 389 13,900 -1,680 Descending New York Center
05:07PM 41.5192 -75.4950 211° Southwest 332 382 12,300 -960 Descending New York Center
05:08PM 41.4458 -75.5533 211° Southwest 326 375 12,000 -240 Descending New York Center
05:09PM 41.3642 -75.6167 210° Southwest 321 369 11,900  Descending New York Center
05:10PM 41.2911 -75.6750 211° Southwest 321 369 12,000  Climbing New York Center
05:11PM 41.2072 -75.6881 187° South 306 352 12,000  Level New York Center
05:12PM 41.1217 -75.6875 180° South 301 346 12,000  Level New York Center
05:13PM 41.0489 -75.6878 180° South 306 352 12,000  Level New York Center
05:14PM 40.9572 -75.6867 179° South 306 352 12,000 -60 Level New York Center
05:15PM 40.8822 -75.6867 180° South 306 352 11,900  Descending New York Center
05:16PM 40.7844 -75.6850 179° South 311 358 12,000  Climbing New York Center
05:17PM 40.7067 -75.6522 162° South 311 358 11,900 -180 Descending New York Center
05:18PM 40.6342 -75.5894 147° Southeast 305 351 11,700 -600 Descending New York Center
05:19PM 40.5656 -75.5300 147° Southeast 305 351 10,800 -900 Descending New York Center
05:20PM 40.4992 -75.4736 147° Southeast 294 338 10,000 -600 Descending New York Center
05:21PM 40.4283 -75.4197 150° Southeast 289 333 9,700 -600 Descending New York Center
05:22PM 40.3531 -75.3764 156° South 289 333 8,800 -900 Descending New York Center
05:23PM 40.2878 -75.3394 157° South 294 338 7,900 -900 Descending New York Center
05:24PM 40.2142 -75.3536 188° South 273 314 7,100 -420 Descending New York Center
05:25PM 40.1336 -75.3892 199° South 281 323 7,100  Level New York Center
05:26PM 40.0783 -75.4125 198° South 248 285 7,100 -540 Level New York Center
05:27PM 40.0161 -75.4056 175° South 213 245 6,100 -540 Descending New York Center
05:28PM 39.9667 -75.3914 168° South 213 245 6,100 -60 Level New York Center
05:29PM 39.9256 -75.4294 215° Southwest 180 207 6,000 -600 Descending New York Center
05:30PM 39.9103 -75.4989 254° West 187 215 5,000 -960 Descending New York Center
05:31PM 39.8906 -75.5758 252° West 206 237 4,100 -480 Descending New York Center
05:32PM 39.8775 -75.6372 255° West 206 237 4,100  Level New York Center
05:33PM 39.8250 -75.6469 188° South 166 191 4,100 -60 Level New York Center
05:35PM 39.8000 -75.5667 112° Southeast 166 191 4,000 -240 Descending Philadelphia TRACON
05:36PM 39.8167 -75.5000 72° East 168 193 3,600 -660 Descending Philadelphia TRACON
05:37PM 39.8333 -75.4500 67° East 167 192 2,700 -900 Descending Philadelphia TRACON
05:38PM 39.8333 -75.3833 90° East 163 188 1,800 -900 Descending Philadelphia TRACON